sensor_id;sensor_type;location;lat;lon;timestamp;pressure;altitude;pressure_sealevel;temperature;humidity
37170;BME280;23062;13.952;100.608;2023-08-06T00:04:18;1009.50;;;31.41;65.19
37170;BME280;23062;13.952;100.608;2023-08-06T00:08:50;1009.51;;;31.46;65.34
37170;BME280;23062;13.952;100.608;2023-08-06T00:13:23;1009.55;;;31.53;65.27
37170;BME280;23062;13.952;100.608;2023-08-06T00:17:49;1009.62;;;31.57;65.12
37170;BME280;23062;13.952;100.608;2023-08-06T00:22:23;1009.66;;;31.59;65.29
37170;BME280;23062;13.952;100.608;2023-08-06T00:26:49;1009.68;;;31.58;65.27
37170;BME280;23062;13.952;100.608;2023-08-06T00:31:17;1009.67;;;31.60;64.96
37170;BME280;23062;13.952;100.608;2023-08-06T00:35:43;1009.69;;;31.61;65.22
37170;BME280;23062;13.952;100.608;2023-08-06T00:40:19;1009.73;;;31.61;65.17
37170;BME280;23062;13.952;100.608;2023-08-06T00:44:51;1009.71;;;31.61;65.19
37170;BME280;23062;13.952;100.608;2023-08-06T00:49:24;1009.70;;;31.61;64.85
37170;BME280;23062;13.952;100.608;2023-08-06T00:53:54;1009.75;;;31.59;64.56
37170;BME280;23062;13.952;100.608;2023-08-06T00:58:22;1009.79;;;31.62;64.45
37170;BME280;23062;13.952;100.608;2023-08-06T01:02:54;1009.82;;;31.65;64.43
37170;BME280;23062;13.952;100.608;2023-08-06T01:07:50;1009.88;;;31.65;64.29
37170;BME280;23062;13.952;100.608;2023-08-06T01:12:43;1009.94;;;31.69;64.04
37170;BME280;23062;13.952;100.608;2023-08-06T01:17:09;1009.92;;;31.72;63.29
37170;BME280;23062;13.952;100.608;2023-08-06T01:21:43;1009.89;;;31.72;62.96
37170;BME280;23062;13.952;100.608;2023-08-06T01:26:24;1009.90;;;31.74;63.12
37170;BME280;23062;13.952;100.608;2023-08-06T01:30:55;1009.87;;;31.75;63.11
37170;BME280;23062;13.952;100.608;2023-08-06T01:35:24;1009.91;;;31.76;63.01
37170;BME280;23062;13.952;100.608;2023-08-06T01:39:51;1009.99;;;31.77;62.84
37170;BME280;23062;13.952;100.608;2023-08-06T01:44:25;1010.00;;;31.81;62.62
37170;BME280;23062;13.952;100.608;2023-08-06T01:48:51;1010.01;;;31.81;62.56
37170;BME280;23062;13.952;100.608;2023-08-06T01:53:23;1010.06;;;31.84;62.42
37170;BME280;23062;13.952;100.608;2023-08-06T01:57:57;1010.04;;;31.88;62.47
37170;BME280;23062;13.952;100.608;2023-08-06T02:02:22;1010.10;;;31.92;62.46
37170;BME280;23062;13.952;100.608;2023-08-06T02:06:47;1010.07;;;31.96;62.17
37170;BME280;23062;13.952;100.608;2023-08-06T02:11:20;1009.95;;;31.96;62.03
37170;BME280;23062;13.952;100.608;2023-08-06T02:15:45;1009.91;;;32.00;61.62
37170;BME280;23062;13.952;100.608;2023-08-06T02:20:22;1009.94;;;32.04;61.59
37170;BME280;23062;13.952;100.608;2023-08-06T02:24:56;1009.98;;;32.07;61.13
37170;BME280;23062;13.952;100.608;2023-08-06T02:29:28;1010.08;;;32.09;61.15
37170;BME280;23062;13.952;100.608;2023-08-06T02:34:02;1010.15;;;32.10;61.16
37170;BME280;23062;13.952;100.608;2023-08-06T02:38:28;1010.24;;;32.12;61.51
37170;BME280;23062;13.952;100.608;2023-08-06T02:43:02;1010.30;;;32.18;61.65
37170;BME280;23062;13.952;100.608;2023-08-06T02:47:35;1010.28;;;32.16;61.65
37170;BME280;23062;13.952;100.608;2023-08-06T02:52:08;1010.28;;;32.14;61.83
37170;BME280;23062;13.952;100.608;2023-08-06T02:56:35;1010.27;;;32.16;61.52
37170;BME280;23062;13.952;100.608;2023-08-06T03:01:08;1010.28;;;32.16;61.38
37170;BME280;23062;13.952;100.608;2023-08-06T03:05:41;1010.32;;;32.13;61.37
37170;BME280;23062;13.952;100.608;2023-08-06T03:10:09;1010.32;;;32.13;61.35
37170;BME280;23062;13.952;100.608;2023-08-06T03:14:44;1010.28;;;32.10;61.43
37170;BME280;23062;13.952;100.608;2023-08-06T03:19:12;1010.26;;;32.12;61.29
37170;BME280;23062;13.952;100.608;2023-08-06T03:23:39;1010.14;;;32.16;61.00
37170;BME280;23062;13.952;100.608;2023-08-06T03:28:12;1010.08;;;32.15;61.12
37170;BME280;23062;13.952;100.608;2023-08-06T03:32:38;1010.05;;;32.19;60.77
37170;BME280;23062;13.952;100.608;2023-08-06T03:37:12;1010.11;;;32.21;60.73
37170;BME280;23062;13.952;100.608;2023-08-06T03:41:46;1010.02;;;32.21;60.42
37170;BME280;23062;13.952;100.608;2023-08-06T03:46:19;1009.97;;;32.23;60.33
37170;BME280;23062;13.952;100.608;2023-08-06T03:50:45;1009.98;;;32.23;59.92
37170;BME280;23062;13.952;100.608;2023-08-06T03:55:17;1009.85;;;32.24;59.81
37170;BME280;23062;13.952;100.608;2023-08-06T03:59:47;1009.76;;;32.26;59.62
37170;BME280;23062;13.952;100.608;2023-08-06T04:04:17;1009.74;;;32.28;59.61
37170;BME280;23062;13.952;100.608;2023-08-06T04:08:44;1009.64;;;32.31;59.67
37170;BME280;23062;13.952;100.608;2023-08-06T04:13:14;1009.62;;;32.32;59.55
37170;BME280;23062;13.952;100.608;2023-08-06T04:17:49;1009.62;;;32.38;59.68
37170;BME280;23062;13.952;100.608;2023-08-06T04:22:15;1009.50;;;32.37;59.67
37170;BME280;23062;13.952;100.608;2023-08-06T04:26:50;1009.48;;;32.38;59.72
37170;BME280;23062;13.952;100.608;2023-08-06T04:31:20;1009.44;;;32.36;59.36
37170;BME280;23062;13.952;100.608;2023-08-06T04:35:53;1009.34;;;32.38;59.51
37170;BME280;23062;13.952;100.608;2023-08-06T04:40:22;1009.31;;;32.37;59.49
37170;BME280;23062;13.952;100.608;2023-08-06T04:44:50;1009.32;;;32.36;59.33
37170;BME280;23062;13.952;100.608;2023-08-06T04:54:00;1009.19;;;32.38;59.26
37170;BME280;23062;13.952;100.608;2023-08-06T04:58:27;1009.17;;;32.38;58.99
37170;BME280;23062;13.952;100.608;2023-08-06T05:02:59;1009.15;;;32.42;59.25
37170;BME280;23062;13.952;100.608;2023-08-06T05:07:44;1008.96;;;32.39;58.65
37170;BME280;23062;13.952;100.608;2023-08-06T05:12:21;1008.94;;;32.42;58.64
37170;BME280;23062;13.952;100.608;2023-08-06T05:16:47;1008.86;;;32.43;58.99
37170;BME280;23062;13.952;100.608;2023-08-06T05:21:14;1008.84;;;32.42;58.86
37170;BME280;23062;13.952;100.608;2023-08-06T05:25:48;1008.73;;;32.43;58.33
37170;BME280;23062;13.952;100.608;2023-08-06T05:30:15;1008.65;;;32.44;58.61
37170;BME280;23062;13.952;100.608;2023-08-06T05:34:46;1008.57;;;32.42;58.86
37170;BME280;23062;13.952;100.608;2023-08-06T05:39:19;1008.38;;;32.44;58.67
37170;BME280;23062;13.952;100.608;2023-08-06T05:43:53;1008.20;;;32.46;58.46
37170;BME280;23062;13.952;100.608;2023-08-06T05:48:24;1008.18;;;32.48;58.66
37170;BME280;23062;13.952;100.608;2023-08-06T05:52:52;1008.10;;;32.49;59.85
37170;BME280;23062;13.952;100.608;2023-08-06T05:57:19;1007.99;;;32.55;59.71
37170;BME280;23062;13.952;100.608;2023-08-06T06:01:45;1007.94;;;32.55;59.81
37170;BME280;23062;13.952;100.608;2023-08-06T06:06:18;1007.83;;;32.55;59.57
37170;BME280;23062;13.952;100.608;2023-08-06T06:10:51;1007.78;;;32.61;59.15
37170;BME280;23062;13.952;100.608;2023-08-06T06:15:29;1007.65;;;32.68;58.74
37170;BME280;23062;13.952;100.608;2023-08-06T06:20:00;1007.53;;;32.74;58.39
37170;BME280;23062;13.952;100.608;2023-08-06T06:29:06;1007.46;;;32.74;58.42
37170;BME280;23062;13.952;100.608;2023-08-06T06:33:42;1007.32;;;32.78;58.73
37170;BME280;23062;13.952;100.608;2023-08-06T06:38:12;1007.32;;;32.78;58.18
37170;BME280;23062;13.952;100.608;2023-08-06T06:42:40;1007.23;;;32.77;57.69
37170;BME280;23062;13.952;100.608;2023-08-06T06:47:10;1007.21;;;32.81;57.22
37170;BME280;23062;13.952;100.608;2023-08-06T06:51:39;1007.23;;;32.86;56.72
37170;BME280;23062;13.952;100.608;2023-08-06T06:56:14;1007.19;;;32.92;56.93
37170;BME280;23062;13.952;100.608;2023-08-06T07:00:43;1007.07;;;32.94;56.97
37170;BME280;23062;13.952;100.608;2023-08-06T07:05:11;1007.10;;;32.99;56.99
37170;BME280;23062;13.952;100.608;2023-08-06T07:09:39;1007.07;;;32.95;57.03
37170;BME280;23062;13.952;100.608;2023-08-06T07:14:14;1006.98;;;32.92;57.28
37170;BME280;23062;13.952;100.608;2023-08-06T07:18:44;1006.92;;;32.96;57.37
37170;BME280;23062;13.952;100.608;2023-08-06T07:23:10;1006.77;;;32.97;56.98
37170;BME280;23062;13.952;100.608;2023-08-06T07:27:38;1006.68;;;32.93;57.42
37170;BME280;23062;13.952;100.608;2023-08-06T07:32:03;1006.63;;;32.96;57.29
37170;BME280;23062;13.952;100.608;2023-08-06T07:36:28;1006.58;;;32.97;57.21
37170;BME280;23062;13.952;100.608;2023-08-06T07:45:28;1006.54;;;33.01;57.36
37170;BME280;23062;13.952;100.608;2023-08-06T07:50:04;1006.48;;;33.02;57.35
37170;BME280;23062;13.952;100.608;2023-08-06T07:54:31;1006.51;;;33.05;57.03
37170;BME280;23062;13.952;100.608;2023-08-06T07:59:03;1006.99;;;33.04;58.23
37170;BME280;23062;13.952;100.608;2023-08-06T08:03:37;1006.91;;;32.97;63.35
37170;BME280;23062;13.952;100.608;2023-08-06T08:08:07;1006.68;;;32.88;65.22
37170;BME280;23062;13.952;100.608;2023-08-06T08:12:55;1006.47;;;32.87;66.69
37170;BME280;23062;13.952;100.608;2023-08-06T08:17:35;1006.51;;;32.86;67.17
37170;BME280;23062;13.952;100.608;2023-08-06T08:22:06;1006.37;;;32.88;68.06
37170;BME280;23062;13.952;100.608;2023-08-06T08:26:32;1006.37;;;32.85;67.43
37170;BME280;23062;13.952;100.608;2023-08-06T08:31:08;1006.35;;;32.85;68.27
37170;BME280;23062;13.952;100.608;2023-08-06T08:35:36;1006.39;;;32.85;68.41
37170;BME280;23062;13.952;100.608;2023-08-06T08:40:04;1006.29;;;32.88;68.53
37170;BME280;23062;13.952;100.608;2023-08-06T08:44:30;1006.26;;;32.88;68.22
37170;BME280;23062;13.952;100.608;2023-08-06T08:48:58;1006.37;;;32.88;67.07
37170;BME280;23062;13.952;100.608;2023-08-06T08:53:24;1006.53;;;32.83;66.15
37170;BME280;23062;13.952;100.608;2023-08-06T08:58:00;1006.69;;;32.84;66.24
37170;BME280;23062;13.952;100.608;2023-08-06T09:02:28;1006.97;;;32.76;66.52
37170;BME280;23062;13.952;100.608;2023-08-06T09:06:58;1007.28;;;32.50;64.50
37170;BME280;23062;13.952;100.608;2023-08-06T09:11:27;1006.99;;;31.94;65.97
37170;BME280;23062;13.952;100.608;2023-08-06T09:15:55;1006.76;;;31.77;67.25
37170;BME280;23062;13.952;100.608;2023-08-06T09:20:24;1006.91;;;31.47;68.08
37170;BME280;23062;13.952;100.608;2023-08-06T09:24:50;1006.85;;;31.43;68.28
37170;BME280;23062;13.952;100.608;2023-08-06T09:29:16;1006.84;;;31.66;68.35
37170;BME280;23062;13.952;100.608;2023-08-06T09:33:41;1006.81;;;31.70;67.74
37170;BME280;23062;13.952;100.608;2023-08-06T09:38:09;1006.80;;;31.80;67.73
37170;BME280;23062;13.952;100.608;2023-08-06T09:42:37;1006.64;;;31.78;68.92
37170;BME280;23062;13.952;100.608;2023-08-06T09:47:05;1006.75;;;31.76;69.17
37170;BME280;23062;13.952;100.608;2023-08-06T09:56:20;1006.71;;;31.87;70.69
37170;BME280;23062;13.952;100.608;2023-08-06T10:00:51;1006.72;;;31.92;71.79
37170;BME280;23062;13.952;100.608;2023-08-06T10:05:18;1006.82;;;31.95;71.71
37170;BME280;23062;13.952;100.608;2023-08-06T10:09:49;1006.97;;;31.97;72.59
37170;BME280;23062;13.952;100.608;2023-08-06T10:14:32;1007.14;;;31.99;73.18
37170;BME280;23062;13.952;100.608;2023-08-06T10:18:59;1007.23;;;32.06;73.68
37170;BME280;23062;13.952;100.608;2023-08-06T10:23:35;1007.27;;;32.12;73.91
37170;BME280;23062;13.952;100.608;2023-08-06T10:28:13;1007.28;;;32.17;73.63
37170;BME280;23062;13.952;100.608;2023-08-06T10:32:48;1007.26;;;32.20;73.76
37170;BME280;23062;13.952;100.608;2023-08-06T10:37:15;1007.29;;;32.23;73.88
37170;BME280;23062;13.952;100.608;2023-08-06T10:41:45;1007.28;;;32.29;73.52
37170;BME280;23062;13.952;100.608;2023-08-06T10:46:25;1007.29;;;32.32;73.78
37170;BME280;23062;13.952;100.608;2023-08-06T10:50:49;1007.30;;;32.34;73.35
37170;BME280;23062;13.952;100.608;2023-08-06T10:55:29;1007.28;;;32.36;73.48
37170;BME280;23062;13.952;100.608;2023-08-06T10:59:55;1007.31;;;32.38;73.05
37170;BME280;23062;13.952;100.608;2023-08-06T11:04:23;1007.24;;;32.37;72.86
37170;BME280;23062;13.952;100.608;2023-08-06T11:08:54;1007.33;;;32.38;72.27
37170;BME280;23062;13.952;100.608;2023-08-06T11:13:31;1007.35;;;32.40;72.34
37170;BME280;23062;13.952;100.608;2023-08-06T11:18:02;1007.32;;;32.44;71.97
37170;BME280;23062;13.952;100.608;2023-08-06T11:22:28;1007.31;;;32.41;71.97
37170;BME280;23062;13.952;100.608;2023-08-06T11:26:55;1007.38;;;32.40;71.81
37170;BME280;23062;13.952;100.608;2023-08-06T11:31:24;1007.43;;;32.37;71.66
37170;BME280;23062;13.952;100.608;2023-08-06T11:35:55;1007.37;;;32.42;70.97
37170;BME280;23062;13.952;100.608;2023-08-06T11:40:26;1007.51;;;32.41;70.71
37170;BME280;23062;13.952;100.608;2023-08-06T11:44:53;1007.50;;;32.38;70.71
37170;BME280;23062;13.952;100.608;2023-08-06T11:49:36;1007.48;;;32.39;70.57
37170;BME280;23062;13.952;100.608;2023-08-06T11:53:51;1007.50;;;32.38;70.77
37170;BME280;23062;13.952;100.608;2023-08-06T11:58:26;1007.63;;;32.41;70.92
37170;BME280;23062;13.952;100.608;2023-08-06T12:03:01;1007.55;;;32.36;71.70
37170;BME280;23062;13.952;100.608;2023-08-06T12:07:29;1007.47;;;32.37;71.82
37170;BME280;23062;13.952;100.608;2023-08-06T12:11:57;1007.44;;;32.36;72.37
37170;BME280;23062;13.952;100.608;2023-08-06T12:16:32;1007.45;;;32.36;72.06
37170;BME280;23062;13.952;100.608;2023-08-06T12:20:59;1007.51;;;32.35;72.08
37170;BME280;23062;13.952;100.608;2023-08-06T12:25:31;1007.53;;;32.34;71.69
37170;BME280;23062;13.952;100.608;2023-08-06T12:29:59;1007.59;;;32.38;71.08
37170;BME280;23062;13.952;100.608;2023-08-06T12:34:26;1007.60;;;32.32;70.84
37170;BME280;23062;13.952;100.608;2023-08-06T12:38:53;1007.68;;;32.33;70.61
37170;BME280;23062;13.952;100.608;2023-08-06T12:43:21;1007.77;;;32.37;70.44
37170;BME280;23062;13.952;100.608;2023-08-06T12:47:48;1007.81;;;32.40;70.83
37170;BME280;23062;13.952;100.608;2023-08-06T12:52:14;1007.93;;;32.48;69.75
37170;BME280;23062;13.952;100.608;2023-08-06T12:56:44;1008.03;;;32.55;69.41
37170;BME280;23062;13.952;100.608;2023-08-06T13:01:17;1008.08;;;32.64;69.07
37170;BME280;23062;13.952;100.608;2023-08-06T13:05:50;1008.16;;;32.61;68.97
37170;BME280;23062;13.952;100.608;2023-08-06T13:10:26;1008.23;;;32.61;68.74
37170;BME280;23062;13.952;100.608;2023-08-06T13:14:55;1008.29;;;32.60;68.80
37170;BME280;23062;13.952;100.608;2023-08-06T13:19:25;1008.36;;;32.63;68.33
37170;BME280;23062;13.952;100.608;2023-08-06T13:23:52;1008.44;;;32.61;68.85
37170;BME280;23062;13.952;100.608;2023-08-06T13:33:07;1008.58;;;32.52;68.37
37170;BME280;23062;13.952;100.608;2023-08-06T13:37:43;1008.73;;;32.56;68.49
37170;BME280;23062;13.952;100.608;2023-08-06T13:42:19;1008.83;;;32.51;68.72
37170;BME280;23062;13.952;100.608;2023-08-06T13:47:08;1008.92;;;32.52;68.82
37170;BME280;23062;13.952;100.608;2023-08-06T13:51:38;1009.08;;;32.60;68.43
37170;BME280;23062;13.952;100.608;2023-08-06T13:56:16;1009.12;;;32.50;69.03
37170;BME280;23062;13.952;100.608;2023-08-06T14:00:45;1009.09;;;32.53;69.08
37170;BME280;23062;13.952;100.608;2023-08-06T14:05:15;1009.06;;;32.48;69.43
37170;BME280;23062;13.952;100.608;2023-08-06T14:09:42;1009.11;;;32.52;69.26
37170;BME280;23062;13.952;100.608;2023-08-06T14:14:14;1009.19;;;32.59;68.77
37170;BME280;23062;13.952;100.608;2023-08-06T14:18:42;1009.22;;;32.54;68.96
37170;BME280;23062;13.952;100.608;2023-08-06T14:23:12;1009.26;;;32.51;69.01
37170;BME280;23062;13.952;100.608;2023-08-06T14:27:46;1009.31;;;32.49;68.73
37170;BME280;23062;13.952;100.608;2023-08-06T14:32:14;1009.35;;;32.48;68.59
37170;BME280;23062;13.952;100.608;2023-08-06T14:36:42;1009.48;;;32.48;68.83
37170;BME280;23062;13.952;100.608;2023-08-06T14:41:16;1009.47;;;32.51;68.49
37170;BME280;23062;13.952;100.608;2023-08-06T14:45:44;1009.53;;;32.52;68.53
37170;BME280;23062;13.952;100.608;2023-08-06T14:50:12;1009.61;;;32.50;68.15
37170;BME280;23062;13.952;100.608;2023-08-06T14:54:39;1009.65;;;32.50;68.11
37170;BME280;23062;13.952;100.608;2023-08-06T14:59:06;1009.59;;;32.48;68.13
37170;BME280;23062;13.952;100.608;2023-08-06T15:03:39;1009.63;;;32.39;68.56
37170;BME280;23062;13.952;100.608;2023-08-06T15:08:17;1009.64;;;32.42;67.89
37170;BME280;23062;13.952;100.608;2023-08-06T15:12:43;1009.62;;;32.43;67.62
37170;BME280;23062;13.952;100.608;2023-08-06T15:17:17;1009.60;;;32.37;67.73
37170;BME280;23062;13.952;100.608;2023-08-06T15:21:43;1009.55;;;32.36;67.58
37170;BME280;23062;13.952;100.608;2023-08-06T15:26:10;1009.52;;;32.40;67.24
37170;BME280;23062;13.952;100.608;2023-08-06T15:30:40;1009.42;;;32.42;66.99
37170;BME280;23062;13.952;100.608;2023-08-06T15:35:09;1009.30;;;32.39;67.04
37170;BME280;23062;13.952;100.608;2023-08-06T15:44:28;1009.31;;;32.35;66.54
37170;BME280;23062;13.952;100.608;2023-08-06T15:49:03;1009.31;;;32.34;66.59
37170;BME280;23062;13.952;100.608;2023-08-06T15:53:29;1009.28;;;32.33;66.79
37170;BME280;23062;13.952;100.608;2023-08-06T15:57:57;1009.25;;;32.36;66.54
37170;BME280;23062;13.952;100.608;2023-08-06T16:02:25;1009.09;;;32.34;66.40
37170;BME280;23062;13.952;100.608;2023-08-06T16:06:58;1009.11;;;32.34;66.27
37170;BME280;23062;13.952;100.608;2023-08-06T16:11:24;1009.03;;;32.32;66.31
37170;BME280;23062;13.952;100.608;2023-08-06T16:15:58;1008.96;;;32.36;66.25
37170;BME280;23062;13.952;100.608;2023-08-06T16:20:32;1009.02;;;32.32;66.20
37170;BME280;23062;13.952;100.608;2023-08-06T16:25:04;1008.97;;;32.33;66.24
37170;BME280;23062;13.952;100.608;2023-08-06T16:29:38;1008.93;;;32.31;66.18
37170;BME280;23062;13.952;100.608;2023-08-06T16:34:04;1008.91;;;32.24;66.55
37170;BME280;23062;13.952;100.608;2023-08-06T16:38:33;1008.88;;;32.30;66.19
37170;BME280;23062;13.952;100.608;2023-08-06T16:43:06;1008.95;;;32.28;66.26
37170;BME280;23062;13.952;100.608;2023-08-06T16:47:39;1008.90;;;32.26;66.07
37170;BME280;23062;13.952;100.608;2023-08-06T16:52:16;1008.87;;;32.25;66.25
37170;BME280;23062;13.952;100.608;2023-08-06T16:56:44;1008.86;;;32.22;66.23
37170;BME280;23062;13.952;100.608;2023-08-06T17:01:20;1008.85;;;32.26;66.08
37170;BME280;23062;13.952;100.608;2023-08-06T17:05:54;1008.88;;;32.18;66.25
37170;BME280;23062;13.952;100.608;2023-08-06T17:10:35;1008.89;;;32.23;66.09
37170;BME280;23062;13.952;100.608;2023-08-06T17:15:06;1008.78;;;32.21;66.25
37170;BME280;23062;13.952;100.608;2023-08-06T17:19:33;1008.77;;;32.24;66.09
37170;BME280;23062;13.952;100.608;2023-08-06T17:24:01;1008.70;;;32.23;66.17
37170;BME280;23062;13.952;100.608;2023-08-06T17:28:36;1008.64;;;32.22;66.11
37170;BME280;23062;13.952;100.608;2023-08-06T17:33:01;1008.65;;;32.22;66.32
37170;BME280;23062;13.952;100.608;2023-08-06T17:37:31;1008.62;;;32.18;66.29
37170;BME280;23062;13.952;100.608;2023-08-06T17:41:57;1008.55;;;32.23;66.09
37170;BME280;23062;13.952;100.608;2023-08-06T17:46:25;1008.49;;;32.21;66.22
37170;BME280;23062;13.952;100.608;2023-08-06T17:50:51;1008.41;;;32.17;66.22
37170;BME280;23062;13.952;100.608;2023-08-06T17:55:18;1008.32;;;32.24;66.00
37170;BME280;23062;13.952;100.608;2023-08-06T17:59:44;1008.24;;;32.22;66.10
37170;BME280;23062;13.952;100.608;2023-08-06T18:04:13;1008.17;;;32.21;66.16
37170;BME280;23062;13.952;100.608;2023-08-06T18:08:46;1008.10;;;32.18;66.17
37170;BME280;23062;13.952;100.608;2023-08-06T18:13:16;1008.06;;;32.16;66.22
37170;BME280;23062;13.952;100.608;2023-08-06T18:17:46;1007.93;;;32.20;65.85
37170;BME280;23062;13.952;100.608;2023-08-06T18:22:12;1007.84;;;32.15;66.11
37170;BME280;23062;13.952;100.608;2023-08-06T18:26:39;1007.81;;;32.18;65.83
37170;BME280;23062;13.952;100.608;2023-08-06T18:31:05;1007.73;;;32.14;66.04
37170;BME280;23062;13.952;100.608;2023-08-06T18:35:32;1007.70;;;32.08;65.97
37170;BME280;23062;13.952;100.608;2023-08-06T18:39:59;1007.71;;;32.20;65.40
37170;BME280;23062;13.952;100.608;2023-08-06T18:44:36;1007.63;;;32.10;65.73
37170;BME280;23062;13.952;100.608;2023-08-06T18:49:01;1007.59;;;32.07;65.58
37170;BME280;23062;13.952;100.608;2023-08-06T18:53:37;1007.50;;;32.10;65.41
37170;BME280;23062;13.952;100.608;2023-08-06T18:58:10;1007.52;;;32.06;65.26
37170;BME280;23062;13.952;100.608;2023-08-06T19:02:42;1007.39;;;32.03;65.25
37170;BME280;23062;13.952;100.608;2023-08-06T19:07:08;1007.40;;;32.04;65.12
37170;BME280;23062;13.952;100.608;2023-08-06T19:11:36;1007.37;;;32.05;64.99
37170;BME280;23062;13.952;100.608;2023-08-06T19:16:10;1007.30;;;32.01;64.84
37170;BME280;23062;13.952;100.608;2023-08-06T19:20:45;1007.32;;;32.01;64.78
37170;BME280;23062;13.952;100.608;2023-08-06T19:25:12;1007.19;;;32.04;64.50
37170;BME280;23062;13.952;100.608;2023-08-06T19:29:43;1007.11;;;32.02;64.33
37170;BME280;23062;13.952;100.608;2023-08-06T19:34:10;1007.05;;;32.01;64.39
37170;BME280;23062;13.952;100.608;2023-08-06T19:38:42;1007.02;;;31.96;64.52
37170;BME280;23062;13.952;100.608;2023-08-06T19:43:08;1006.95;;;32.01;64.24
37170;BME280;23062;13.952;100.608;2023-08-06T19:47:42;1006.95;;;32.00;64.36
37170;BME280;23062;13.952;100.608;2023-08-06T19:52:09;1006.97;;;31.97;64.51
37170;BME280;23062;13.952;100.608;2023-08-06T19:56:36;1007.01;;;31.94;64.46
37170;BME280;23062;13.952;100.608;2023-08-06T20:01:04;1007.05;;;31.94;64.55
37170;BME280;23062;13.952;100.608;2023-08-06T20:05:30;1007.05;;;31.92;64.47
37170;BME280;23062;13.952;100.608;2023-08-06T20:10:05;1007.10;;;31.90;64.47
37170;BME280;23062;13.952;100.608;2023-08-06T20:14:33;1007.11;;;31.93;64.39
37170;BME280;23062;13.952;100.608;2023-08-06T20:18:59;1007.19;;;31.94;64.30
37170;BME280;23062;13.952;100.608;2023-08-06T20:23:27;1007.10;;;31.88;64.47
37170;BME280;23062;13.952;100.608;2023-08-06T20:28:02;1007.13;;;31.92;64.24
37170;BME280;23062;13.952;100.608;2023-08-06T20:32:36;1007.11;;;31.88;64.27
37170;BME280;23062;13.952;100.608;2023-08-06T20:37:03;1007.11;;;31.93;64.03
37170;BME280;23062;13.952;100.608;2023-08-06T20:41:29;1007.09;;;31.90;64.18
37170;BME280;23062;13.952;100.608;2023-08-06T20:45:56;1007.12;;;31.89;64.16
37170;BME280;23062;13.952;100.608;2023-08-06T20:50:24;1007.16;;;31.82;63.50
37170;BME280;23062;13.952;100.608;2023-08-06T20:54:50;1007.18;;;31.61;64.12
37170;BME280;23062;13.952;100.608;2023-08-06T20:59:23;1007.27;;;31.47;64.00
37170;BME280;23062;13.952;100.608;2023-08-06T21:03:52;1007.31;;;31.39;65.09
37170;BME280;23062;13.952;100.608;2023-08-06T21:08:19;1007.48;;;31.34;65.04
37170;BME280;23062;13.952;100.608;2023-08-06T21:12:45;1007.42;;;31.32;65.36
37170;BME280;23062;13.952;100.608;2023-08-06T21:17:11;1007.46;;;31.32;65.33
37170;BME280;23062;13.952;100.608;2023-08-06T21:21:45;1007.49;;;31.23;65.45
37170;BME280;23062;13.952;100.608;2023-08-06T21:26:19;1007.53;;;31.19;65.37
37170;BME280;23062;13.952;100.608;2023-08-06T21:30:59;1007.43;;;31.12;65.60
37170;BME280;23062;13.952;100.608;2023-08-06T21:35:29;1007.37;;;31.07;66.28
37170;BME280;23062;13.952;100.608;2023-08-06T21:39:55;1007.34;;;30.69;68.04
37170;BME280;23062;13.952;100.608;2023-08-06T21:44:20;1007.41;;;30.59;68.39
37170;BME280;23062;13.952;100.608;2023-08-06T21:48:49;1007.34;;;30.49;68.16
37170;BME280;23062;13.952;100.608;2023-08-06T21:53:19;1007.34;;;30.50;68.31
37170;BME280;23062;13.952;100.608;2023-08-06T21:57:48;1007.31;;;30.43;68.03
37170;BME280;23062;13.952;100.608;2023-08-06T22:02:17;1007.37;;;30.37;68.20
37170;BME280;23062;13.952;100.608;2023-08-06T22:06:42;1007.41;;;30.45;67.70
37170;BME280;23062;13.952;100.608;2023-08-06T22:11:14;1007.46;;;30.69;66.80
37170;BME280;23062;13.952;100.608;2023-08-06T22:15:43;1007.48;;;30.71;66.52
37170;BME280;23062;13.952;100.608;2023-08-06T22:20:11;1007.38;;;30.69;66.50
37170;BME280;23062;13.952;100.608;2023-08-06T22:24:41;1007.49;;;30.74;66.31
37170;BME280;23062;13.952;100.608;2023-08-06T22:29:09;1007.54;;;30.72;66.35
37170;BME280;23062;13.952;100.608;2023-08-06T22:33:38;1007.56;;;30.71;66.64
37170;BME280;23062;13.952;100.608;2023-08-06T22:38:07;1007.57;;;30.78;66.49
37170;BME280;23062;13.952;100.608;2023-08-06T22:42:33;1007.70;;;30.81;66.67
37170;BME280;23062;13.952;100.608;2023-08-06T22:47:09;1007.73;;;30.84;67.20
37170;BME280;23062;13.952;100.608;2023-08-06T22:51:38;1007.71;;;30.85;67.09
37170;BME280;23062;13.952;100.608;2023-08-06T22:56:07;1007.77;;;30.91;66.68
37170;BME280;23062;13.952;100.608;2023-08-06T23:00:41;1007.79;;;30.98;66.40
37170;BME280;23062;13.952;100.608;2023-08-06T23:05:15;1007.80;;;30.98;66.62
37170;BME280;23062;13.952;100.608;2023-08-06T23:09:50;1007.84;;;30.94;66.57
37170;BME280;23062;13.952;100.608;2023-08-06T23:14:16;1007.89;;;30.98;66.64
37170;BME280;23062;13.952;100.608;2023-08-06T23:18:46;1007.90;;;30.91;66.52
37170;BME280;23062;13.952;100.608;2023-08-06T23:23:15;1007.92;;;31.02;66.17
37170;BME280;23062;13.952;100.608;2023-08-06T23:27:42;1007.95;;;31.03;66.36
37170;BME280;23062;13.952;100.608;2023-08-06T23:32:11;1007.98;;;31.00;66.27
37170;BME280;23062;13.952;100.608;2023-08-06T23:36:39;1008.01;;;31.07;66.32
37170;BME280;23062;13.952;100.608;2023-08-06T23:41:06;1007.99;;;31.08;66.15
37170;BME280;23062;13.952;100.608;2023-08-06T23:45:33;1007.95;;;31.06;66.53
37170;BME280;23062;13.952;100.608;2023-08-06T23:50:00;1008.03;;;31.10;66.22
37170;BME280;23062;13.952;100.608;2023-08-06T23:54:26;1008.06;;;31.09;66.47
37170;BME280;23062;13.952;100.608;2023-08-06T23:58:53;1008.14;;;30.93;66.75
